sensor_id;sensor_type;location;lat;lon;timestamp;temperature;humidity
9564;DHT22;4820;50.870;4.702;2024-03-02T00:00:26;7.60;99.90
9564;DHT22;4820;50.870;4.702;2024-03-02T00:02:52;7.60;99.90
9564;DHT22;4820;50.870;4.702;2024-03-02T00:05:20;7.60;99.90
9564;DHT22;4820;50.870;4.702;2024-03-02T00:07:53;7.60;99.90
9564;DHT22;4820;50.870;4.702;2024-03-02T00:10:22;7.70;99.90
9564;DHT22;4820;50.870;4.702;2024-03-02T00:12:50;7.70;99.90
9564;DHT22;4820;50.870;4.702;2024-03-02T00:15:46;7.60;99.90
9564;DHT22;4820;50.870;4.702;2024-03-02T00:18:14;7.60;99.90
9564;DHT22;4820;50.870;4.702;2024-03-02T00:20:40;7.70;99.90
9564;DHT22;4820;50.870;4.702;2024-03-02T00:23:09;7.60;99.90
9564;DHT22;4820;50.870;4.702;2024-03-02T00:25:53;7.60;99.90
9564;DHT22;4820;50.870;4.702;2024-03-02T00:28:24;7.60;99.90
9564;DHT22;4820;50.870;4.702;2024-03-02T00:30:56;7.60;99.90
9564;DHT22;4820;50.870;4.702;2024-03-02T00:33:25;7.70;99.90
9564;DHT22;4820;50.870;4.702;2024-03-02T00:35:51;7.70;99.90
9564;DHT22;4820;50.870;4.702;2024-03-02T00:38:17;7.60;99.90
9564;DHT22;4820;50.870;4.702;2024-03-02T00:40:44;7.60;99.90
9564;DHT22;4820;50.870;4.702;2024-03-02T00:45:56;7.60;99.90
9564;DHT22;4820;50.870;4.702;2024-03-02T00:48:23;7.60;99.90
9564;DHT22;4820;50.870;4.702;2024-03-02T00:50:52;7.60;99.90
9564;DHT22;4820;50.870;4.702;2024-03-02T00:53:21;7.60;99.90
9564;DHT22;4820;50.870;4.702;2024-03-02T00:55:49;7.60;99.90
9564;DHT22;4820;50.870;4.702;2024-03-02T00:58:14;7.60;99.90
9564;DHT22;4820;50.870;4.702;2024-03-02T01:00:40;7.60;99.90
9564;DHT22;4820;50.870;4.702;2024-03-02T01:03:06;7.60;99.90
9564;DHT22;4820;50.870;4.702;2024-03-02T01:05:34;7.60;99.90
9564;DHT22;4820;50.870;4.702;2024-03-02T01:08:01;7.60;99.90
9564;DHT22;4820;50.870;4.702;2024-03-02T01:10:26;7.60;99.90
9564;DHT22;4820;50.870;4.702;2024-03-02T01:12:53;7.70;99.90
9564;DHT22;4820;50.870;4.702;2024-03-02T01:15:18;7.70;99.90
9564;DHT22;4820;50.870;4.702;2024-03-02T01:17:44;7.60;99.90
9564;DHT22;4820;50.870;4.702;2024-03-02T01:20:11;7.60;99.90
9564;DHT22;4820;50.870;4.702;2024-03-02T01:22:38;7.70;99.90
9564;DHT22;4820;50.870;4.702;2024-03-02T01:25:04;7.70;99.90
9564;DHT22;4820;50.870;4.702;2024-03-02T01:27:30;7.70;99.90
9564;DHT22;4820;50.870;4.702;2024-03-02T01:29:55;7.70;99.90
9564;DHT22;4820;50.870;4.702;2024-03-02T01:32:21;7.70;99.90
9564;DHT22;4820;50.870;4.702;2024-03-02T01:34:46;7.70;99.90
9564;DHT22;4820;50.870;4.702;2024-03-02T01:37:12;7.70;99.90
9564;DHT22;4820;50.870;4.702;2024-03-02T01:39:38;7.70;99.90
9564;DHT22;4820;50.870;4.702;2024-03-02T01:42:04;7.70;99.90
9564;DHT22;4820;50.870;4.702;2024-03-02T01:44:30;7.70;99.90
9564;DHT22;4820;50.870;4.702;2024-03-02T01:46:55;7.60;99.90
9564;DHT22;4820;50.870;4.702;2024-03-02T01:49:21;7.50;99.90
9564;DHT22;4820;50.870;4.702;2024-03-02T01:51:47;7.60;99.90
9564;DHT22;4820;50.870;4.702;2024-03-02T01:54:12;7.60;99.90
9564;DHT22;4820;50.870;4.702;2024-03-02T01:56:39;7.60;99.90
9564;DHT22;4820;50.870;4.702;2024-03-02T01:59:05;7.60;99.90
9564;DHT22;4820;50.870;4.702;2024-03-02T02:01:31;7.60;99.90
9564;DHT22;4820;50.870;4.702;2024-03-02T02:03:56;7.60;99.90
9564;DHT22;4820;50.870;4.702;2024-03-02T02:06:22;7.60;99.90
9564;DHT22;4820;50.870;4.702;2024-03-02T02:08:48;7.60;99.90
9564;DHT22;4820;50.870;4.702;2024-03-02T02:11:17;7.60;99.90
9564;DHT22;4820;50.870;4.702;2024-03-02T02:13:43;7.70;99.90
9564;DHT22;4820;50.870;4.702;2024-03-02T02:16:09;7.70;99.90
9564;DHT22;4820;50.870;4.702;2024-03-02T02:18:35;7.70;99.90
9564;DHT22;4820;50.870;4.702;2024-03-02T02:21:02;7.70;99.90
9564;DHT22;4820;50.870;4.702;2024-03-02T02:23:28;7.70;99.90
9564;DHT22;4820;50.870;4.702;2024-03-02T02:25:53;7.70;99.90
9564;DHT22;4820;50.870;4.702;2024-03-02T02:28:20;7.60;99.90
9564;DHT22;4820;50.870;4.702;2024-03-02T02:30:45;7.60;99.90
9564;DHT22;4820;50.870;4.702;2024-03-02T02:33:11;7.60;99.90
9564;DHT22;4820;50.870;4.702;2024-03-02T02:35:37;7.70;99.90
9564;DHT22;4820;50.870;4.702;2024-03-02T02:38:03;7.70;99.90
9564;DHT22;4820;50.870;4.702;2024-03-02T02:40:29;7.70;99.90
9564;DHT22;4820;50.870;4.702;2024-03-02T02:42:56;7.60;99.90
9564;DHT22;4820;50.870;4.702;2024-03-02T02:45:22;7.50;99.90
9564;DHT22;4820;50.870;4.702;2024-03-02T02:47:48;7.60;99.90
9564;DHT22;4820;50.870;4.702;2024-03-02T02:50:14;7.50;99.90
9564;DHT22;4820;50.870;4.702;2024-03-02T02:52:41;7.50;99.90
9564;DHT22;4820;50.870;4.702;2024-03-02T02:55:11;7.40;99.90
9564;DHT22;4820;50.870;4.702;2024-03-02T02:57:41;7.40;99.90
9564;DHT22;4820;50.870;4.702;2024-03-02T03:00:14;7.40;99.90
9564;DHT22;4820;50.870;4.702;2024-03-02T03:02:45;7.40;99.90
9564;DHT22;4820;50.870;4.702;2024-03-02T03:05:13;7.30;99.90
9564;DHT22;4820;50.870;4.702;2024-03-02T03:07:40;7.30;99.90
9564;DHT22;4820;50.870;4.702;2024-03-02T03:10:06;7.30;99.90
9564;DHT22;4820;50.870;4.702;2024-03-02T03:12:33;7.20;99.90
9564;DHT22;4820;50.870;4.702;2024-03-02T03:14:59;7.20;99.90
9564;DHT22;4820;50.870;4.702;2024-03-02T03:17:25;7.20;99.90
9564;DHT22;4820;50.870;4.702;2024-03-02T03:19:51;7.10;99.90
9564;DHT22;4820;50.870;4.702;2024-03-02T03:22:17;7.10;99.90
9564;DHT22;4820;50.870;4.702;2024-03-02T03:24:42;7.10;99.90
9564;DHT22;4820;50.870;4.702;2024-03-02T03:27:08;7.00;99.90
9564;DHT22;4820;50.870;4.702;2024-03-02T03:29:36;7.00;99.90
9564;DHT22;4820;50.870;4.702;2024-03-02T03:32:02;6.90;99.90
9564;DHT22;4820;50.870;4.702;2024-03-02T03:34:27;6.90;99.90
9564;DHT22;4820;50.870;4.702;2024-03-02T03:36:54;6.90;99.90
9564;DHT22;4820;50.870;4.702;2024-03-02T03:39:20;6.80;99.90
9564;DHT22;4820;50.870;4.702;2024-03-02T03:41:45;6.80;99.90
9564;DHT22;4820;50.870;4.702;2024-03-02T03:44:11;6.80;99.90
9564;DHT22;4820;50.870;4.702;2024-03-02T03:46:37;6.80;99.90
9564;DHT22;4820;50.870;4.702;2024-03-02T03:49:03;6.80;99.90
9564;DHT22;4820;50.870;4.702;2024-03-02T03:51:29;6.80;99.90
9564;DHT22;4820;50.870;4.702;2024-03-02T03:53:56;6.80;99.90
9564;DHT22;4820;50.870;4.702;2024-03-02T03:56:21;6.80;99.90
9564;DHT22;4820;50.870;4.702;2024-03-02T03:58:47;6.80;99.90
9564;DHT22;4820;50.870;4.702;2024-03-02T04:01:12;6.80;99.90
9564;DHT22;4820;50.870;4.702;2024-03-02T04:03:38;6.80;99.90
9564;DHT22;4820;50.870;4.702;2024-03-02T04:06:04;6.70;99.90
9564;DHT22;4820;50.870;4.702;2024-03-02T04:08:30;6.80;99.90
9564;DHT22;4820;50.870;4.702;2024-03-02T04:10:55;6.90;99.90
9564;DHT22;4820;50.870;4.702;2024-03-02T04:13:21;6.80;99.90
9564;DHT22;4820;50.870;4.702;2024-03-02T04:15:47;6.80;99.90
9564;DHT22;4820;50.870;4.702;2024-03-02T04:18:12;6.80;99.90
9564;DHT22;4820;50.870;4.702;2024-03-02T04:20:38;6.80;99.90
9564;DHT22;4820;50.870;4.702;2024-03-02T04:23:04;6.70;99.90
9564;DHT22;4820;50.870;4.702;2024-03-02T04:25:30;6.60;99.90
9564;DHT22;4820;50.870;4.702;2024-03-02T04:27:55;6.60;99.90
9564;DHT22;4820;50.870;4.702;2024-03-02T04:30:21;6.60;99.90
9564;DHT22;4820;50.870;4.702;2024-03-02T04:32:46;6.60;99.90
9564;DHT22;4820;50.870;4.702;2024-03-02T04:35:13;6.60;99.90
9564;DHT22;4820;50.870;4.702;2024-03-02T04:37:39;6.60;99.90
9564;DHT22;4820;50.870;4.702;2024-03-02T04:40:05;6.60;99.90
9564;DHT22;4820;50.870;4.702;2024-03-02T04:42:33;6.50;99.90
9564;DHT22;4820;50.870;4.702;2024-03-02T04:44:59;6.50;99.90
9564;DHT22;4820;50.870;4.702;2024-03-02T04:47:25;6.50;99.90
9564;DHT22;4820;50.870;4.702;2024-03-02T04:49:50;6.60;99.90
9564;DHT22;4820;50.870;4.702;2024-03-02T04:52:16;6.60;99.90
9564;DHT22;4820;50.870;4.702;2024-03-02T04:54:43;6.60;99.90
9564;DHT22;4820;50.870;4.702;2024-03-02T04:57:44;6.60;99.90
9564;DHT22;4820;50.870;4.702;2024-03-02T05:00:10;6.50;99.90
9564;DHT22;4820;50.870;4.702;2024-03-02T05:02:36;6.40;99.90
9564;DHT22;4820;50.870;4.702;2024-03-02T05:05:02;6.40;99.90
9564;DHT22;4820;50.870;4.702;2024-03-02T05:07:28;6.40;99.90
9564;DHT22;4820;50.870;4.702;2024-03-02T05:09:54;6.40;99.90
9564;DHT22;4820;50.870;4.702;2024-03-02T05:12:19;6.50;99.90
9564;DHT22;4820;50.870;4.702;2024-03-02T05:15:04;6.40;99.90
9564;DHT22;4820;50.870;4.702;2024-03-02T05:17:29;6.40;99.90
9564;DHT22;4820;50.870;4.702;2024-03-02T05:19:55;6.50;99.90
9564;DHT22;4820;50.870;4.702;2024-03-02T05:22:21;6.60;99.90
9564;DHT22;4820;50.870;4.702;2024-03-02T05:24:46;6.60;99.90
9564;DHT22;4820;50.870;4.702;2024-03-02T05:27:12;6.60;99.90
9564;DHT22;4820;50.870;4.702;2024-03-02T05:29:38;6.60;99.90
9564;DHT22;4820;50.870;4.702;2024-03-02T05:32:03;6.50;99.90
9564;DHT22;4820;50.870;4.702;2024-03-02T05:34:29;6.50;99.90
9564;DHT22;4820;50.870;4.702;2024-03-02T05:36:56;6.60;99.90
9564;DHT22;4820;50.870;4.702;2024-03-02T05:39:23;6.60;99.90
9564;DHT22;4820;50.870;4.702;2024-03-02T05:41:48;6.60;99.90
9564;DHT22;4820;50.870;4.702;2024-03-02T05:44:14;6.60;99.90
9564;DHT22;4820;50.870;4.702;2024-03-02T05:46:41;6.60;99.90
9564;DHT22;4820;50.870;4.702;2024-03-02T05:49:07;6.60;99.90
9564;DHT22;4820;50.870;4.702;2024-03-02T05:51:33;6.60;99.90
9564;DHT22;4820;50.870;4.702;2024-03-02T05:53:59;6.60;99.90
9564;DHT22;4820;50.870;4.702;2024-03-02T05:56:24;6.50;99.90
9564;DHT22;4820;50.870;4.702;2024-03-02T05:58:51;6.60;99.90
9564;DHT22;4820;50.870;4.702;2024-03-02T06:01:35;6.60;99.90
9564;DHT22;4820;50.870;4.702;2024-03-02T06:04:01;6.60;99.90
9564;DHT22;4820;50.870;4.702;2024-03-02T06:06:26;6.60;99.90
9564;DHT22;4820;50.870;4.702;2024-03-02T06:08:52;6.60;99.90
9564;DHT22;4820;50.870;4.702;2024-03-02T06:11:21;6.50;99.90
9564;DHT22;4820;50.870;4.702;2024-03-02T06:13:47;6.50;99.90
9564;DHT22;4820;50.870;4.702;2024-03-02T06:16:12;6.50;99.90
9564;DHT22;4820;50.870;4.702;2024-03-02T06:18:38;6.50;99.90
9564;DHT22;4820;50.870;4.702;2024-03-02T06:21:04;6.50;99.90
9564;DHT22;4820;50.870;4.702;2024-03-02T06:23:30;6.50;99.90
9564;DHT22;4820;50.870;4.702;2024-03-02T06:25:56;6.50;99.90
9564;DHT22;4820;50.870;4.702;2024-03-02T06:28:22;6.50;99.90
9564;DHT22;4820;50.870;4.702;2024-03-02T06:30:47;6.50;99.90
9564;DHT22;4820;50.870;4.702;2024-03-02T06:33:13;6.40;99.90
9564;DHT22;4820;50.870;4.702;2024-03-02T06:35:38;6.40;99.90
9564;DHT22;4820;50.870;4.702;2024-03-02T06:38:04;6.50;99.90
9564;DHT22;4820;50.870;4.702;2024-03-02T06:40:30;6.40;99.90
9564;DHT22;4820;50.870;4.702;2024-03-02T06:42:55;6.50;99.90
9564;DHT22;4820;50.870;4.702;2024-03-02T06:45:21;6.50;99.90
9564;DHT22;4820;50.870;4.702;2024-03-02T06:47:47;6.50;99.90
9564;DHT22;4820;50.870;4.702;2024-03-02T06:50:12;6.50;99.90
9564;DHT22;4820;50.870;4.702;2024-03-02T06:52:38;6.50;99.90
9564;DHT22;4820;50.870;4.702;2024-03-02T06:55:04;6.50;99.90
9564;DHT22;4820;50.870;4.702;2024-03-02T06:57:30;6.50;99.90
9564;DHT22;4820;50.870;4.702;2024-03-02T06:59:56;6.40;99.90
9564;DHT22;4820;50.870;4.702;2024-03-02T07:02:24;6.30;99.90
9564;DHT22;4820;50.870;4.702;2024-03-02T07:04:53;6.30;99.90
9564;DHT22;4820;50.870;4.702;2024-03-02T07:07:20;6.30;99.90
9564;DHT22;4820;50.870;4.702;2024-03-02T07:09:46;6.30;99.90
9564;DHT22;4820;50.870;4.702;2024-03-02T07:12:11;6.20;99.90
9564;DHT22;4820;50.870;4.702;2024-03-02T07:14:37;6.30;99.90
9564;DHT22;4820;50.870;4.702;2024-03-02T07:17:21;6.30;99.90
9564;DHT22;4820;50.870;4.702;2024-03-02T07:19:47;6.30;99.90
9564;DHT22;4820;50.870;4.702;2024-03-02T07:22:13;6.30;99.90
9564;DHT22;4820;50.870;4.702;2024-03-02T07:24:45;6.30;99.90
9564;DHT22;4820;50.870;4.702;2024-03-02T07:27:12;6.40;99.90
9564;DHT22;4820;50.870;4.702;2024-03-02T07:29:38;6.40;99.90
9564;DHT22;4820;50.870;4.702;2024-03-02T07:32:05;6.40;99.90
9564;DHT22;4820;50.870;4.702;2024-03-02T07:34:31;6.40;99.90
9564;DHT22;4820;50.870;4.702;2024-03-02T07:36:57;6.40;99.90
9564;DHT22;4820;50.870;4.702;2024-03-02T07:39:23;6.40;99.90
9564;DHT22;4820;50.870;4.702;2024-03-02T07:41:49;6.40;99.90
9564;DHT22;4820;50.870;4.702;2024-03-02T07:44:14;6.40;99.90
9564;DHT22;4820;50.870;4.702;2024-03-02T07:46:44;6.50;99.90
9564;DHT22;4820;50.870;4.702;2024-03-02T07:49:11;6.40;99.90
9564;DHT22;4820;50.870;4.702;2024-03-02T07:51:36;6.50;99.90
9564;DHT22;4820;50.870;4.702;2024-03-02T07:54:02;6.60;99.90
9564;DHT22;4820;50.870;4.702;2024-03-02T07:56:28;6.60;99.90
9564;DHT22;4820;50.870;4.702;2024-03-02T07:58:54;6.80;99.90
9564;DHT22;4820;50.870;4.702;2024-03-02T08:01:20;6.80;99.90
9564;DHT22;4820;50.870;4.702;2024-03-02T08:03:45;6.90;99.90
9564;DHT22;4820;50.870;4.702;2024-03-02T08:06:18;6.90;99.90
9564;DHT22;4820;50.870;4.702;2024-03-02T08:08:47;6.90;99.90
9564;DHT22;4820;50.870;4.702;2024-03-02T08:11:13;7.00;99.90
9564;DHT22;4820;50.870;4.702;2024-03-02T08:13:38;7.00;99.90
9564;DHT22;4820;50.870;4.702;2024-03-02T08:16:05;7.00;99.90
9564;DHT22;4820;50.870;4.702;2024-03-02T08:18:33;7.10;99.90
9564;DHT22;4820;50.870;4.702;2024-03-02T08:20:59;7.30;99.90
9564;DHT22;4820;50.870;4.702;2024-03-02T08:23:25;7.40;99.90
9564;DHT22;4820;50.870;4.702;2024-03-02T08:25:51;7.50;99.90
9564;DHT22;4820;50.870;4.702;2024-03-02T08:28:17;7.60;99.90
9564;DHT22;4820;50.870;4.702;2024-03-02T08:30:43;7.80;99.90
9564;DHT22;4820;50.870;4.702;2024-03-02T08:33:08;8.00;99.90
9564;DHT22;4820;50.870;4.702;2024-03-02T08:35:34;8.00;99.90
9564;DHT22;4820;50.870;4.702;2024-03-02T08:38:04;8.10;99.90
9564;DHT22;4820;50.870;4.702;2024-03-02T08:40:30;8.20;99.90
9564;DHT22;4820;50.870;4.702;2024-03-02T08:42:56;8.20;99.90
9564;DHT22;4820;50.870;4.702;2024-03-02T08:45:22;8.40;99.90
9564;DHT22;4820;50.870;4.702;2024-03-02T08:47:48;8.50;99.90
9564;DHT22;4820;50.870;4.702;2024-03-02T08:50:14;8.50;99.90
9564;DHT22;4820;50.870;4.702;2024-03-02T08:52:39;8.60;99.90
9564;DHT22;4820;50.870;4.702;2024-03-02T08:55:06;8.70;99.90
9564;DHT22;4820;50.870;4.702;2024-03-02T08:57:33;8.70;99.90
9564;DHT22;4820;50.870;4.702;2024-03-02T08:59:59;8.80;99.90
9564;DHT22;4820;50.870;4.702;2024-03-02T09:02:25;8.80;99.90
9564;DHT22;4820;50.870;4.702;2024-03-02T09:04:51;8.90;99.90
9564;DHT22;4820;50.870;4.702;2024-03-02T09:07:17;9.00;99.90
9564;DHT22;4820;50.870;4.702;2024-03-02T09:09:42;9.10;99.90
9564;DHT22;4820;50.870;4.702;2024-03-02T09:12:09;9.20;99.90
9564;DHT22;4820;50.870;4.702;2024-03-02T09:14:36;9.10;99.90
9564;DHT22;4820;50.870;4.702;2024-03-02T09:17:02;9.20;99.90
9564;DHT22;4820;50.870;4.702;2024-03-02T09:19:29;9.30;99.90
9564;DHT22;4820;50.870;4.702;2024-03-02T09:21:55;9.30;99.90
9564;DHT22;4820;50.870;4.702;2024-03-02T09:24:21;9.30;99.90
9564;DHT22;4820;50.870;4.702;2024-03-02T09:26:47;9.40;99.90
9564;DHT22;4820;50.870;4.702;2024-03-02T09:29:13;9.50;99.90
9564;DHT22;4820;50.870;4.702;2024-03-02T09:31:40;9.50;99.90
9564;DHT22;4820;50.870;4.702;2024-03-02T09:34:06;9.60;99.90
9564;DHT22;4820;50.870;4.702;2024-03-02T09:36:33;9.70;99.90
9564;DHT22;4820;50.870;4.702;2024-03-02T09:39:00;9.60;99.90
9564;DHT22;4820;50.870;4.702;2024-03-02T09:41:26;9.50;99.90
9564;DHT22;4820;50.870;4.702;2024-03-02T09:43:52;9.40;99.90
9564;DHT22;4820;50.870;4.702;2024-03-02T09:46:19;9.40;99.90
9564;DHT22;4820;50.870;4.702;2024-03-02T09:48:45;9.40;99.90
9564;DHT22;4820;50.870;4.702;2024-03-02T09:51:13;9.50;99.90
9564;DHT22;4820;50.870;4.702;2024-03-02T09:53:41;9.60;99.90
9564;DHT22;4820;50.870;4.702;2024-03-02T09:56:07;9.60;99.90
9564;DHT22;4820;50.870;4.702;2024-03-02T09:58:34;9.70;99.90
9564;DHT22;4820;50.870;4.702;2024-03-02T10:01:06;9.80;99.90
9564;DHT22;4820;50.870;4.702;2024-03-02T10:03:33;9.90;99.90
9564;DHT22;4820;50.870;4.702;2024-03-02T10:08:47;10.10;99.90
9564;DHT22;4820;50.870;4.702;2024-03-02T10:11:32;10.10;99.90
9564;DHT22;4820;50.870;4.702;2024-03-02T10:16:44;10.10;99.90
9564;DHT22;4820;50.870;4.702;2024-03-02T10:19:17;10.20;99.90
9564;DHT22;4820;50.870;4.702;2024-03-02T10:21:45;10.30;99.90
9564;DHT22;4820;50.870;4.702;2024-03-02T10:24:10;10.40;99.90
9564;DHT22;4820;50.870;4.702;2024-03-02T10:26:36;10.40;99.90
9564;DHT22;4820;50.870;4.702;2024-03-02T10:29:03;10.50;99.90
9564;DHT22;4820;50.870;4.702;2024-03-02T10:31:28;10.60;99.90
9564;DHT22;4820;50.870;4.702;2024-03-02T10:33:58;10.70;99.90
9564;DHT22;4820;50.870;4.702;2024-03-02T10:36:25;10.80;99.90
9564;DHT22;4820;50.870;4.702;2024-03-02T10:38:51;10.70;99.90
9564;DHT22;4820;50.870;4.702;2024-03-02T10:41:23;10.60;99.90
9564;DHT22;4820;50.870;4.702;2024-03-02T10:43:51;10.70;99.90
9564;DHT22;4820;50.870;4.702;2024-03-02T10:46:19;10.70;99.90
9564;DHT22;4820;50.870;4.702;2024-03-02T10:48:46;10.90;99.90
9564;DHT22;4820;50.870;4.702;2024-03-02T10:51:12;11.00;99.90
9564;DHT22;4820;50.870;4.702;2024-03-02T10:53:38;11.20;99.90
9564;DHT22;4820;50.870;4.702;2024-03-02T10:56:07;11.30;99.90
9564;DHT22;4820;50.870;4.702;2024-03-02T10:58:33;11.30;99.90
9564;DHT22;4820;50.870;4.702;2024-03-02T11:01:06;11.40;99.90
9564;DHT22;4820;50.870;4.702;2024-03-02T11:03:35;11.50;99.90
9564;DHT22;4820;50.870;4.702;2024-03-02T11:06:03;11.40;99.90
9564;DHT22;4820;50.870;4.702;2024-03-02T11:08:34;11.30;99.90
9564;DHT22;4820;50.870;4.702;2024-03-02T11:11:07;11.30;99.90
9564;DHT22;4820;50.870;4.702;2024-03-02T11:13:35;11.40;99.90
9564;DHT22;4820;50.870;4.702;2024-03-02T11:16:06;11.70;99.90
9564;DHT22;4820;50.870;4.702;2024-03-02T11:18:34;11.90;99.90
9564;DHT22;4820;50.870;4.702;2024-03-02T11:21:01;12.00;99.90
9564;DHT22;4820;50.870;4.702;2024-03-02T11:23:34;12.20;99.90
9564;DHT22;4820;50.870;4.702;2024-03-02T11:26:19;12.20;99.90
9564;DHT22;4820;50.870;4.702;2024-03-02T11:28:46;12.20;99.90
9564;DHT22;4820;50.870;4.702;2024-03-02T11:31:12;12.30;99.90
9564;DHT22;4820;50.870;4.702;2024-03-02T11:33:37;12.40;99.90
9564;DHT22;4820;50.870;4.702;2024-03-02T11:36:06;12.50;99.90
9564;DHT22;4820;50.870;4.702;2024-03-02T11:38:33;12.40;99.90
9564;DHT22;4820;50.870;4.702;2024-03-02T11:41:06;12.30;99.90
9564;DHT22;4820;50.870;4.702;2024-03-02T11:43:38;12.30;99.90
9564;DHT22;4820;50.870;4.702;2024-03-02T11:46:05;12.30;99.90
9564;DHT22;4820;50.870;4.702;2024-03-02T11:48:35;12.30;99.90
9564;DHT22;4820;50.870;4.702;2024-03-02T11:51:02;12.30;99.90
9564;DHT22;4820;50.870;4.702;2024-03-02T11:53:28;12.30;99.90
9564;DHT22;4820;50.870;4.702;2024-03-02T11:56:01;12.40;99.90
9564;DHT22;4820;50.870;4.702;2024-03-02T11:58:27;12.40;99.90
9564;DHT22;4820;50.870;4.702;2024-03-02T12:00:54;12.50;99.90
9564;DHT22;4820;50.870;4.702;2024-03-02T12:03:25;12.50;99.90
9564;DHT22;4820;50.870;4.702;2024-03-02T12:05:53;12.60;99.90
9564;DHT22;4820;50.870;4.702;2024-03-02T12:08:19;12.70;99.90
9564;DHT22;4820;50.870;4.702;2024-03-02T12:11:01;12.80;99.90
9564;DHT22;4820;50.870;4.702;2024-03-02T12:13:27;12.90;99.90
9564;DHT22;4820;50.870;4.702;2024-03-02T12:15:54;13.00;99.90
9564;DHT22;4820;50.870;4.702;2024-03-02T12:18:21;13.10;99.90
9564;DHT22;4820;50.870;4.702;2024-03-02T12:20:49;13.10;99.90
9564;DHT22;4820;50.870;4.702;2024-03-02T12:23:18;13.20;99.90
9564;DHT22;4820;50.870;4.702;2024-03-02T12:25:44;13.20;99.90
9564;DHT22;4820;50.870;4.702;2024-03-02T12:28:10;13.10;99.90
9564;DHT22;4820;50.870;4.702;2024-03-02T12:30:36;13.10;99.90
9564;DHT22;4820;50.870;4.702;2024-03-02T12:33:01;13.00;99.90
9564;DHT22;4820;50.870;4.702;2024-03-02T12:35:27;12.90;99.90
9564;DHT22;4820;50.870;4.702;2024-03-02T12:37:53;12.90;99.90
9564;DHT22;4820;50.870;4.702;2024-03-02T12:40:21;13.00;99.90
9564;DHT22;4820;50.870;4.702;2024-03-02T12:42:48;13.00;99.90
9564;DHT22;4820;50.870;4.702;2024-03-02T12:45:16;13.10;99.90
9564;DHT22;4820;50.870;4.702;2024-03-02T12:47:42;13.10;99.90
9564;DHT22;4820;50.870;4.702;2024-03-02T12:50:09;13.20;99.90
9564;DHT22;4820;50.870;4.702;2024-03-02T12:52:35;13.20;99.90
9564;DHT22;4820;50.870;4.702;2024-03-02T12:55:05;13.20;99.90
9564;DHT22;4820;50.870;4.702;2024-03-02T12:57:32;13.20;99.90
9564;DHT22;4820;50.870;4.702;2024-03-02T13:00:03;13.10;99.90
9564;DHT22;4820;50.870;4.702;2024-03-02T13:02:36;13.10;99.90
9564;DHT22;4820;50.870;4.702;2024-03-02T13:05:02;13.20;99.90
9564;DHT22;4820;50.870;4.702;2024-03-02T13:07:29;13.40;99.90
9564;DHT22;4820;50.870;4.702;2024-03-02T13:09:56;13.60;99.90
9564;DHT22;4820;50.870;4.702;2024-03-02T13:12:22;13.60;99.90
9564;DHT22;4820;50.870;4.702;2024-03-02T13:14:49;13.60;99.90
9564;DHT22;4820;50.870;4.702;2024-03-02T13:17:17;13.70;99.90
9564;DHT22;4820;50.870;4.702;2024-03-02T13:19:54;13.90;99.90
9564;DHT22;4820;50.870;4.702;2024-03-02T13:22:20;13.90;99.90
9564;DHT22;4820;50.870;4.702;2024-03-02T13:24:47;13.80;99.90
9564;DHT22;4820;50.870;4.702;2024-03-02T13:27:13;13.70;99.90
9564;DHT22;4820;50.870;4.702;2024-03-02T13:29:39;13.60;99.90
9564;DHT22;4820;50.870;4.702;2024-03-02T13:32:05;13.70;99.90
9564;DHT22;4820;50.870;4.702;2024-03-02T13:34:30;13.80;99.90
9564;DHT22;4820;50.870;4.702;2024-03-02T13:36:56;14.00;99.90
9564;DHT22;4820;50.870;4.702;2024-03-02T13:39:22;14.10;99.90
9564;DHT22;4820;50.870;4.702;2024-03-02T13:41:48;14.10;99.90
9564;DHT22;4820;50.870;4.702;2024-03-02T13:44:28;14.20;99.90
9564;DHT22;4820;50.870;4.702;2024-03-02T13:46:53;14.20;99.90
9564;DHT22;4820;50.870;4.702;2024-03-02T13:49:19;14.10;99.90
9564;DHT22;4820;50.870;4.702;2024-03-02T13:51:45;13.90;99.90
9564;DHT22;4820;50.870;4.702;2024-03-02T13:54:11;13.80;99.90
9564;DHT22;4820;50.870;4.702;2024-03-02T13:56:37;13.90;99.90
9564;DHT22;4820;50.870;4.702;2024-03-02T13:59:04;13.90;99.90
9564;DHT22;4820;50.870;4.702;2024-03-02T14:01:31;13.90;99.90
9564;DHT22;4820;50.870;4.702;2024-03-02T14:03:58;13.90;99.90
9564;DHT22;4820;50.870;4.702;2024-03-02T14:06:24;13.90;99.90
9564;DHT22;4820;50.870;4.702;2024-03-02T14:08:52;13.80;99.90
9564;DHT22;4820;50.870;4.702;2024-03-02T14:11:18;13.60;99.90
9564;DHT22;4820;50.870;4.702;2024-03-02T14:13:44;13.60;99.90
9564;DHT22;4820;50.870;4.702;2024-03-02T14:16:15;13.70;99.90
9564;DHT22;4820;50.870;4.702;2024-03-02T14:18:41;13.70;99.90
9564;DHT22;4820;50.870;4.702;2024-03-02T14:21:07;13.60;99.90
9564;DHT22;4820;50.870;4.702;2024-03-02T14:23:33;13.40;99.90
9564;DHT22;4820;50.870;4.702;2024-03-02T14:25:59;13.30;99.90
9564;DHT22;4820;50.870;4.702;2024-03-02T14:28:25;13.30;99.90
9564;DHT22;4820;50.870;4.702;2024-03-02T14:30:50;13.40;99.90
9564;DHT22;4820;50.870;4.702;2024-03-02T14:33:16;13.60;99.90
9564;DHT22;4820;50.870;4.702;2024-03-02T14:35:42;13.60;99.90
9564;DHT22;4820;50.870;4.702;2024-03-02T14:38:08;13.50;99.90
9564;DHT22;4820;50.870;4.702;2024-03-02T14:40:33;13.40;99.90
9564;DHT22;4820;50.870;4.702;2024-03-02T14:42:59;13.40;99.90
9564;DHT22;4820;50.870;4.702;2024-03-02T14:45:25;13.40;99.90
9564;DHT22;4820;50.870;4.702;2024-03-02T14:47:51;13.50;99.90
9564;DHT22;4820;50.870;4.702;2024-03-02T14:50:17;13.50;99.90
9564;DHT22;4820;50.870;4.702;2024-03-02T14:52:44;13.40;99.90
9564;DHT22;4820;50.870;4.702;2024-03-02T14:55:11;13.40;99.90
9564;DHT22;4820;50.870;4.702;2024-03-02T14:57:36;13.40;99.90
9564;DHT22;4820;50.870;4.702;2024-03-02T15:00:02;13.40;99.90
9564;DHT22;4820;50.870;4.702;2024-03-02T15:02:29;13.40;99.90
9564;DHT22;4820;50.870;4.702;2024-03-02T15:04:55;13.30;99.90
9564;DHT22;4820;50.870;4.702;2024-03-02T15:07:20;13.30;99.90
9564;DHT22;4820;50.870;4.702;2024-03-02T15:09:46;13.20;99.90
9564;DHT22;4820;50.870;4.702;2024-03-02T15:12:12;13.10;99.90
9564;DHT22;4820;50.870;4.702;2024-03-02T15:14:40;13.10;99.90
9564;DHT22;4820;50.870;4.702;2024-03-02T15:17:12;13.10;99.90
9564;DHT22;4820;50.870;4.702;2024-03-02T15:19:42;13.10;99.90
9564;DHT22;4820;50.870;4.702;2024-03-02T15:22:08;13.10;99.90
9564;DHT22;4820;50.870;4.702;2024-03-02T15:24:34;13.20;99.90
9564;DHT22;4820;50.870;4.702;2024-03-02T15:26:59;13.20;99.90
9564;DHT22;4820;50.870;4.702;2024-03-02T15:29:25;13.20;99.90
9564;DHT22;4820;50.870;4.702;2024-03-02T15:31:54;13.20;99.90
9564;DHT22;4820;50.870;4.702;2024-03-02T15:34:20;13.20;99.90
9564;DHT22;4820;50.870;4.702;2024-03-02T15:36:46;13.30;99.90
9564;DHT22;4820;50.870;4.702;2024-03-02T15:39:12;13.30;99.90
9564;DHT22;4820;50.870;4.702;2024-03-02T15:41:37;13.30;99.90
9564;DHT22;4820;50.870;4.702;2024-03-02T15:44:06;13.20;99.90
9564;DHT22;4820;50.870;4.702;2024-03-02T15:46:33;13.20;99.90
9564;DHT22;4820;50.870;4.702;2024-03-02T15:48:59;13.20;99.90
9564;DHT22;4820;50.870;4.702;2024-03-02T15:51:28;13.20;99.90
9564;DHT22;4820;50.870;4.702;2024-03-02T15:53:54;13.20;99.90
9564;DHT22;4820;50.870;4.702;2024-03-02T15:56:20;13.20;99.90
9564;DHT22;4820;50.870;4.702;2024-03-02T15:58:46;13.10;99.90
9564;DHT22;4820;50.870;4.702;2024-03-02T16:01:12;13.10;99.90
9564;DHT22;4820;50.870;4.702;2024-03-02T16:03:39;13.10;99.90
9564;DHT22;4820;50.870;4.702;2024-03-02T16:06:05;13.10;99.90
9564;DHT22;4820;50.870;4.702;2024-03-02T16:08:31;13.20;99.90
9564;DHT22;4820;50.870;4.702;2024-03-02T16:10:56;13.20;99.90
9564;DHT22;4820;50.870;4.702;2024-03-02T16:13:23;13.20;99.90
9564;DHT22;4820;50.870;4.702;2024-03-02T16:15:49;13.10;99.90
9564;DHT22;4820;50.870;4.702;2024-03-02T16:18:14;13.10;99.90